createdAt,value
2023-02-01T00:00:34.162Z,144348.25
2023-02-01T00:03:02.027Z,144477.72
2023-02-01T00:05:29.098Z,144429.34
2023-02-01T00:07:56.086Z,144466.84
2023-02-01T00:10:23.477Z,144477.72
2023-02-01T00:12:50.715Z,144483.81
2023-02-01T00:15:17.862Z,144481.38
2023-02-01T00:17:44.996Z,144494.69
2023-02-01T00:20:12.513Z,144414.81
2023-02-01T00:22:39.530Z,144517.69
2023-02-01T00:25:07.445Z,144493.50
2023-02-01T00:27:34.493Z,144508.00
2023-02-01T00:30:01.561Z,144510.44
2023-02-01T00:32:28.604Z,144469.28
2023-02-01T00:34:55.611Z,144411.19
2023-02-01T00:37:24.117Z,144527.38
2023-02-01T00:39:51.315Z,144505.59
2023-02-01T00:42:18.362Z,144462.00
2023-02-01T00:44:46.714Z,144522.53
2023-02-01T00:47:13.709Z,144527.38
2023-02-01T00:49:40.700Z,144524.97
2023-02-01T00:52:07.762Z,144541.88
2023-02-01T00:54:35.585Z,144532.22
2023-02-01T00:57:02.745Z,144537.06
2023-02-01T00:59:29.887Z,144483.81
2023-02-01T01:01:56.976Z,144557.66
2023-02-01T01:04:23.996Z,144563.69
2023-02-01T01:06:50.984Z,144549.19
2023-02-01T01:09:18.038Z,144554.00
2023-02-01T01:11:45.751Z,144573.38
2023-02-01T01:14:12.839Z,144566.13
2023-02-01T01:16:39.998Z,144539.50
2023-02-01T01:19:07.882Z,144437.81
2023-02-01T01:21:34.917Z,144561.31
2023-02-01T01:24:02.098Z,144566.13
2023-02-01T01:26:30.769Z,144531.00
2023-02-01T01:28:59.988Z,144561.31
2023-02-01T01:31:29.172Z,144563.69
2023-02-01T01:33:58.651Z,144558.84
2023-02-01T01:36:27.189Z,144533.47
2023-02-01T01:38:54.586Z,144546.78
2023-02-01T01:41:24.860Z,144543.13
2023-02-01T01:43:59.062Z,144544.34
2023-02-01T01:46:30.751Z,144539.50
2023-02-01T01:49:03.979Z,144406.34
2023-02-01T01:51:36.521Z,144503.16
2023-02-01T01:54:13.364Z,144500.72
2023-02-01T01:56:42.143Z,144487.44
2023-02-01T01:59:10.380Z,144508.00
2023-02-01T02:01:37.535Z,144520.13
2023-02-01T02:04:05.583Z,144508.00
2023-02-01T02:06:41.712Z,144520.13
2023-02-01T02:09:08.810Z,144544.34
2023-02-01T02:11:35.933Z,144552.81
2023-02-01T02:14:05.963Z,144435.38
2023-02-01T02:17:03.696Z,144532.22
2023-02-01T02:19:36.533Z,144554.00
2023-02-01T02:22:44.042Z,144539.50
2023-02-01T02:25:48.634Z,144527.38
2023-02-01T02:28:46.241Z,144514.06
2023-02-01T02:31:34.695Z,144524.97
2023-02-01T02:34:23.231Z,144537.06
2023-02-01T02:37:47.747Z,144528.63
2023-02-01T02:40:23.846Z,144531.00
2023-02-01T02:43:38.932Z,144531.00
2023-02-01T02:46:36.360Z,144518.88
2023-02-01T02:49:30.203Z,144469.28
2023-02-01T02:52:52.380Z,144481.38
2023-02-01T02:55:21.508Z,144503.16
2023-02-01T02:58:07.830Z,144481.38
2023-02-01T03:00:56.405Z,144389.38
2023-02-01T03:03:42.266Z,144508.00
2023-02-01T03:06:19.472Z,144371.22
2023-02-01T03:08:47.224Z,144500.72
2023-02-01T03:11:16.242Z,144514.06
2023-02-01T03:13:55.979Z,144396.66
2023-02-01T03:16:35.790Z,144481.38
2023-02-01T03:19:15.014Z,144515.28
2023-02-01T03:21:46.510Z,144464.41
2023-02-01T03:24:21.271Z,144259.88
2023-02-01T03:26:55.944Z,144488.66
2023-02-01T03:29:30.511Z,144503.16
2023-02-01T03:31:57.663Z,144504.38
2023-02-01T03:34:24.867Z,144495.88
2023-02-01T03:37:03.116Z,144353.06
2023-02-01T03:40:06.142Z,144449.88
2023-02-01T03:42:44.095Z,144322.81
2023-02-01T03:45:43.434Z,144437.81
2023-02-01T03:48:14.546Z,144436.56
2023-02-01T03:50:48.153Z,144428.09
2023-02-01T03:53:18.563Z,144445.06
2023-02-01T03:55:47.295Z,144446.25
2023-02-01T03:58:18.806Z,144439.00
2023-02-01T04:01:00.671Z,144432.97
2023-02-01T04:03:29.669Z,144403.91
2023-02-01T04:05:57.350Z,144413.56
2023-02-01T04:08:27.834Z,144430.53
2023-02-01T04:10:55.021Z,144426.91
2023-02-01T04:13:22.095Z,144276.84
2023-02-01T04:15:50.721Z,144429.34
2023-02-01T04:18:17.747Z,144403.91
2023-02-01T04:20:45.466Z,144397.84
2023-02-01T04:23:13.076Z,144394.22
2023-02-01T04:25:40.165Z,144408.72
2023-02-01T04:28:07.910Z,144353.06
2023-02-01T04:30:35.049Z,144399.06
2023-02-01T04:33:04.542Z,144379.69
2023-02-01T04:35:31.787Z,144374.88
2023-02-01T04:37:58.791Z,144393.03
2023-02-01T04:40:26.100Z,144394.22
2023-02-01T04:42:53.194Z,144244.19
2023-02-01T04:45:20.180Z,144360.34
2023-02-01T04:47:48.980Z,144338.56
2023-02-01T04:50:16.365Z,144357.91
2023-02-01T04:52:43.417Z,144372.44
2023-02-01T04:55:10.404Z,144360.34
2023-02-01T04:57:39.676Z,144361.56
2023-02-01T05:00:09.539Z,144350.63
2023-02-01T05:02:36.608Z,144344.59
2023-02-01T05:05:03.764Z,144366.38
2023-02-01T05:07:31.005Z,144350.63
2023-02-01T05:09:57.999Z,144331.28
2023-02-01T05:12:43.421Z,144324.06
2023-02-01T05:15:10.561Z,144310.75
2023-02-01T05:17:37.549Z,144328.88
2023-02-01T05:20:05.072Z,144299.81
2023-02-01T05:22:32.109Z,144307.09
2023-02-01T05:24:59.156Z,144282.88
2023-02-01T05:27:26.137Z,144311.94
2023-02-01T05:29:53.237Z,144325.25
2023-02-01T05:32:22.522Z,144330.09
2023-02-01T05:34:50.387Z,144353.06
2023-02-01T05:37:17.463Z,144370.03
2023-02-01T05:39:44.564Z,144265.97
2023-02-01T05:42:11.685Z,144304.66
2023-02-01T05:44:38.679Z,144344.59
2023-02-01T05:47:05.732Z,144340.97
2023-02-01T05:49:32.822Z,144241.72
2023-02-01T05:52:00.640Z,144360.34
2023-02-01T05:54:28.049Z,144368.78
2023-02-01T05:56:55.006Z,144224.84
2023-02-01T05:59:22.012Z,144361.56
2023-02-01T06:01:49.116Z,144377.25
2023-02-01T06:04:16.385Z,144394.22
2023-02-01T06:06:43.367Z,144224.84
2023-02-01T06:09:10.935Z,144399.06
2023-02-01T06:11:38.067Z,144401.50
2023-02-01T06:14:05.052Z,144412.38
2023-02-01T06:16:32.589Z,144391.78
2023-02-01T06:18:59.586Z,144336.13
2023-02-01T06:21:26.673Z,144416.00
2023-02-01T06:23:55.100Z,144419.66
2023-02-01T06:26:22.531Z,144428.09
2023-02-01T06:28:50.155Z,144442.66
2023-02-01T06:31:17.251Z,144440.22
2023-02-01T06:33:44.429Z,144423.25
2023-02-01T06:36:16.753Z,144442.66
2023-02-01T06:38:43.808Z,144423.25
2023-02-01T06:41:11.993Z,144434.16
2023-02-01T06:43:39.340Z,144440.22
2023-02-01T06:46:09.219Z,144406.34
2023-02-01T06:48:36.378Z,144432.97
2023-02-01T06:51:03.775Z,144416.00
2023-02-01T06:53:31.295Z,144440.22
2023-02-01T06:55:59.523Z,144452.34
2023-02-01T06:58:31.951Z,144453.53
2023-02-01T07:01:05.103Z,144258.69
2023-02-01T07:03:32.296Z,144449.88
2023-02-01T07:05:59.872Z,144287.75
2023-02-01T07:08:34.566Z,144432.97
2023-02-01T07:11:09.608Z,144428.09
2023-02-01T07:13:37.415Z,144446.25
2023-02-01T07:16:07.139Z,144412.38
2023-02-01T07:18:34.169Z,144418.41
2023-02-01T07:21:01.269Z,144389.38
2023-02-01T07:23:29.008Z,144434.16
2023-02-01T07:26:02.277Z,144425.69
2023-02-01T07:28:31.454Z,144418.41
2023-02-01T07:31:16.525Z,144382.09
2023-02-01T07:33:43.571Z,144420.84
2023-02-01T07:36:16.612Z,144428.09
2023-02-01T07:38:44.041Z,144442.66
2023-02-01T07:41:11.382Z,144437.81
2023-02-01T07:43:38.429Z,144338.56
2023-02-01T07:46:08.246Z,144440.22
2023-02-01T07:48:35.329Z,144447.50
2023-02-01T07:51:09.451Z,144297.44
2023-02-01T07:53:37.037Z,144417.22
2023-02-01T07:56:04.951Z,144448.69
2023-02-01T07:58:31.985Z,144411.19
2023-02-01T08:01:17.826Z,144440.22
2023-02-01T08:03:44.861Z,144449.88
2023-02-01T08:06:11.915Z,144442.66
2023-02-01T08:08:39.028Z,144459.56
2023-02-01T08:11:07.427Z,144428.09
2023-02-01T08:13:36.156Z,144471.69
2023-02-01T08:16:06.140Z,144445.06
2023-02-01T08:18:33.512Z,144443.84
2023-02-01T08:21:15.652Z,144436.56
2023-02-01T08:23:43.749Z,144411.19
2023-02-01T08:26:15.703Z,144416.00
2023-02-01T08:28:45.765Z,144353.06
2023-02-01T08:31:17.443Z,144374.88
2023-02-01T08:33:48.784Z,144278.03
2023-02-01T08:36:15.783Z,144382.09
2023-02-01T08:38:42.894Z,144357.91
2023-02-01T08:41:13.406Z,144386.94
2023-02-01T08:43:41.297Z,144234.50
2023-02-01T08:46:09.465Z,144394.22
2023-02-01T08:48:36.918Z,144307.09
2023-02-01T08:51:06.933Z,144429.34
2023-02-01T08:53:34.617Z,144445.06
2023-02-01T08:56:02.011Z,144437.81
2023-02-01T08:58:29.094Z,144435.38
2023-02-01T09:00:56.576Z,144324.06
2023-02-01T09:03:23.668Z,144440.22
2023-02-01T09:05:51.425Z,144430.53
2023-02-01T09:08:21.059Z,144437.81
2023-02-01T09:10:48.107Z,144431.72
2023-02-01T09:13:15.163Z,144429.34
2023-02-01T09:15:42.209Z,144379.69
2023-02-01T09:18:09.284Z,144380.91
2023-02-01T09:20:38.006Z,144458.38
2023-02-01T09:23:05.426Z,144452.34
2023-02-01T09:25:32.389Z,144464.41
2023-02-01T09:27:59.414Z,144452.34
2023-02-01T09:30:26.638Z,144460.81
2023-02-01T09:32:53.687Z,144443.84
2023-02-01T09:35:20.799Z,144468.03
2023-02-01T09:37:47.773Z,144437.81
2023-02-01T09:40:18.127Z,144478.97
2023-02-01T09:42:51.567Z,144447.50
2023-02-01T09:45:22.840Z,144491.03
2023-02-01T09:47:56.934Z,144443.84
2023-02-01T09:50:33.898Z,144483.81
2023-02-01T09:53:15.862Z,144486.22
2023-02-01T09:55:47.871Z,144498.31
2023-02-01T09:58:28.255Z,144460.81
2023-02-01T10:00:58.704Z,144382.09
2023-02-01T10:03:33.615Z,144454.72
2023-02-01T10:06:22.606Z,144474.13
2023-02-01T10:08:55.454Z,144486.22
2023-02-01T10:11:25.293Z,144486.22
2023-02-01T10:14:08.578Z,144314.34
2023-02-01T10:16:48.093Z,144515.28
2023-02-01T10:19:35.549Z,144478.97
2023-02-01T10:22:08.892Z,144426.91
2023-02-01T10:25:01.938Z,144514.06
2023-02-01T10:27:38.788Z,144515.28
2023-02-01T10:30:15.659Z,144532.22
2023-02-01T10:32:43.272Z,144423.25
2023-02-01T10:35:18.150Z,144512.84
2023-02-01T10:37:47.350Z,144520.13
2023-02-01T10:40:23.035Z,144416.00
2023-02-01T10:43:00.353Z,144491.03
2023-02-01T10:45:30.793Z,144357.91
2023-02-01T10:48:00.257Z,144498.31
2023-02-01T10:50:41.425Z,144569.78
2023-02-01T10:53:11.562Z,144573.38
2023-02-01T10:55:46.956Z,144439.00
2023-02-01T10:58:19.924Z,144551.63
2023-02-01T11:00:55.072Z,144518.88
2023-02-01T11:03:43.539Z,144585.50
2023-02-01T11:06:12.388Z,144597.63
2023-02-01T11:08:52.567Z,144469.28
2023-02-01T11:11:20.648Z,144495.88
2023-02-01T11:13:56.701Z,144568.53
2023-02-01T11:16:39.038Z,144590.34
2023-02-01T11:19:07.156Z,144590.34
2023-02-01T11:21:35.471Z,144587.94
2023-02-01T11:24:06.101Z,144600.03
2023-02-01T11:26:33.888Z,144592.78
2023-02-01T11:29:11.761Z,144591.53
2023-02-01T11:31:39.831Z,144635.16
2023-02-01T11:34:18.082Z,144659.38
2023-02-01T11:36:48.756Z,144666.66
2023-02-01T11:39:15.726Z,144698.22
2023-02-01T11:42:06.497Z,144637.59
2023-02-01T11:44:35.626Z,144699.41
2023-02-01T11:47:22.878Z,144650.91
2023-02-01T11:49:52.720Z,144595.19
2023-02-01T11:52:37.354Z,144650.91
2023-02-01T11:55:35.753Z,144632.72
2023-02-01T11:58:29.211Z,144654.53
2023-02-01T12:01:18.323Z,144648.50
2023-02-01T12:04:03.827Z,144627.88
2023-02-01T12:06:51.468Z,144664.22
2023-02-01T12:09:57.935Z,144660.63
2023-02-01T12:12:52.302Z,144677.59
2023-02-01T12:15:48.232Z,144653.34
2023-02-01T12:18:34.847Z,144687.28
2023-02-01T12:21:07.382Z,144723.63
2023-02-01T12:23:37.403Z,144769.72
2023-02-01T12:26:31.990Z,144749.09
2023-02-01T12:29:23.563Z,144752.72
2023-02-01T12:32:12.288Z,144733.34
2023-02-01T12:35:13.230Z,144716.38
2023-02-01T12:38:02.086Z,144723.63
2023-02-01T12:41:11.601Z,144575.81
2023-02-01T12:43:50.414Z,144610.97
2023-02-01T12:46:24.340Z,144738.19
2023-02-01T12:49:03.453Z,144732.13
2023-02-01T12:51:36.052Z,144694.56
2023-02-01T12:54:38.347Z,144703.06
2023-02-01T12:57:13.733Z,144707.91
2023-02-01T12:59:45.884Z,144665.47
2023-02-01T13:02:16.289Z,144655.78
2023-02-01T13:05:12.646Z,144590.34
2023-02-01T13:07:46.759Z,144635.16
2023-02-01T13:10:25.374Z,144653.34
2023-02-01T13:13:00.228Z,144619.44
2023-02-01T13:15:34.179Z,144600.03
2023-02-01T13:18:04.968Z,144617.00
2023-02-01T13:20:37.972Z,144604.88
2023-02-01T13:23:24.857Z,144590.34
2023-02-01T13:25:53.355Z,144587.94
2023-02-01T13:28:26.059Z,144607.31
2023-02-01T13:31:22.863Z,144612.16
2023-02-01T13:34:02.842Z,144603.66
2023-02-01T13:36:57.181Z,144494.69
2023-02-01T13:39:58.281Z,144547.97
2023-02-01T13:42:30.739Z,144601.28
2023-02-01T13:45:00.262Z,144515.28
2023-02-01T13:47:34.490Z,144568.53
2023-02-01T13:50:22.618Z,144577.03
2023-02-01T13:53:01.620Z,144425.69
2023-02-01T13:55:31.798Z,144558.84
2023-02-01T13:58:06.771Z,144503.16
2023-02-01T14:00:37.383Z,144537.06
2023-02-01T14:03:10.685Z,144509.22
2023-02-01T14:05:40.644Z,144478.97
2023-02-01T14:08:10.621Z,144478.97
2023-02-01T14:10:52.674Z,144454.72
2023-02-01T14:13:33.282Z,144462.00
2023-02-01T14:16:03.130Z,144480.16
2023-02-01T14:18:36.353Z,144475.31
2023-02-01T14:21:24.752Z,144472.88
2023-02-01T14:23:54.696Z,144470.50
2023-02-01T14:26:28.501Z,144449.88
2023-02-01T14:29:20.284Z,144408.72
2023-02-01T14:32:13.516Z,144475.31
2023-02-01T14:34:55.473Z,144464.41
2023-02-01T14:37:22.868Z,144478.97
2023-02-01T14:40:03.456Z,144474.13
2023-02-01T14:42:34.465Z,144452.34
2023-02-01T14:45:19.783Z,144483.81
2023-02-01T14:48:05.730Z,144466.84
2023-02-01T14:50:41.251Z,144459.56
2023-02-01T14:53:11.556Z,144469.28
2023-02-01T14:55:42.991Z,144446.25
2023-02-01T14:58:35.950Z,144460.81
2023-02-01T15:01:14.763Z,144457.16
2023-02-01T15:04:10.408Z,144457.16
2023-02-01T15:06:39.266Z,144440.22
2023-02-01T15:09:14.888Z,144458.38
2023-02-01T15:12:18.796Z,144459.56
2023-02-01T15:14:50.151Z,144414.81
2023-02-01T15:17:22.817Z,144432.97
2023-02-01T15:20:01.052Z,144446.25
2023-02-01T15:22:29.767Z,144448.69
2023-02-01T15:24:59.026Z,144474.13
2023-02-01T15:27:28.017Z,144422.06
2023-02-01T15:29:55.170Z,144480.16
2023-02-01T15:32:40.233Z,144447.50
2023-02-01T15:35:38.727Z,144491.03
2023-02-01T15:38:36.532Z,144512.84
2023-02-01T15:41:12.134Z,144414.81
2023-02-01T15:44:02.594Z,144472.88
2023-02-01T15:46:37.097Z,144357.91
2023-02-01T15:49:05.731Z,144498.31
2023-02-01T15:51:33.678Z,144506.81
2023-02-01T15:54:05.660Z,144487.44
2023-02-01T15:56:41.831Z,144481.38
2023-02-01T15:59:20.082Z,144486.22
2023-02-01T16:01:48.346Z,144478.97
2023-02-01T16:04:23.106Z,144497.13
2023-02-01T16:06:55.281Z,144494.69
2023-02-01T16:09:35.666Z,144482.56
2023-02-01T16:12:04.646Z,144435.38
2023-02-01T16:14:32.870Z,144486.22
2023-02-01T16:17:00.323Z,144498.31
2023-02-01T16:19:29.202Z,144510.44
2023-02-01T16:21:56.862Z,144441.41
2023-02-01T16:24:26.882Z,144516.50
2023-02-01T16:26:54.035Z,144391.78
2023-02-01T16:29:22.543Z,144508.00
2023-02-01T16:31:50.355Z,144474.13
2023-02-01T16:34:18.535Z,144524.97
2023-02-01T16:36:52.795Z,144524.97
2023-02-01T16:39:21.401Z,144495.88
2023-02-01T16:41:48.475Z,144524.97
2023-02-01T16:44:15.527Z,144505.59
2023-02-01T16:46:45.921Z,144503.16
2023-02-01T16:49:31.326Z,144528.63
2023-02-01T16:52:00.027Z,144551.63
2023-02-01T16:54:27.667Z,144551.63
2023-02-01T16:56:55.212Z,144522.53
2023-02-01T16:59:22.194Z,144549.19
2023-02-01T17:01:49.189Z,144449.88
2023-02-01T17:04:17.473Z,144469.28
2023-02-01T17:06:48.088Z,144564.94
2023-02-01T17:09:15.491Z,144563.69
2023-02-01T17:11:42.585Z,144574.63
2023-02-01T17:14:18.609Z,144563.69
2023-02-01T17:16:49.182Z,144578.22
2023-02-01T17:19:19.820Z,144572.19
2023-02-01T17:21:52.372Z,144566.13
2023-02-01T17:24:21.231Z,144575.81
2023-02-01T17:26:49.579Z,144533.47
2023-02-01T17:29:16.897Z,144534.66
2023-02-01T17:31:47.422Z,144554.00
2023-02-01T17:34:17.917Z,144493.50
2023-02-01T17:36:46.108Z,144537.06
2023-02-01T17:39:37.129Z,144534.66
2023-02-01T17:42:05.671Z,144377.25
2023-02-01T17:44:32.772Z,144517.69
2023-02-01T17:46:59.908Z,144520.13
2023-02-01T17:49:30.622Z,144517.69
2023-02-01T17:51:58.255Z,144524.97
2023-02-01T17:54:26.307Z,144520.13
2023-02-01T17:56:53.435Z,144531.00
2023-02-01T17:59:20.445Z,144460.81
2023-02-01T18:01:47.824Z,144532.22
2023-02-01T18:04:18.556Z,144505.59
2023-02-01T18:06:45.867Z,144526.16
2023-02-01T18:09:12.896Z,144478.97
2023-02-01T18:11:39.891Z,144454.72
2023-02-01T18:14:07.062Z,144549.19
2023-02-01T18:16:35.524Z,144558.84
2023-02-01T18:19:04.764Z,144564.94
2023-02-01T18:21:45.135Z,144416.00
2023-02-01T18:24:14.401Z,144573.38
2023-02-01T18:26:42.521Z,144561.31
2023-02-01T18:29:09.779Z,144591.53
2023-02-01T18:31:47.217Z,144591.53
2023-02-01T18:34:21.150Z,144554.00
2023-02-01T18:36:51.334Z,144563.69
2023-02-01T18:39:18.421Z,144541.88
2023-02-01T18:41:51.655Z,144587.94
2023-02-01T18:44:18.808Z,144604.88
2023-02-01T18:46:45.909Z,144518.88
2023-02-01T18:49:17.837Z,144612.16
2023-02-01T18:51:45.274Z,144597.63
2023-02-01T18:54:12.476Z,144529.81
2023-02-01T18:56:39.979Z,144613.34
2023-02-01T18:59:07.125Z,144598.84
2023-02-01T19:01:38.411Z,144487.44
2023-02-01T19:04:07.716Z,144568.53
2023-02-01T19:06:45.644Z,144538.28
2023-02-01T19:09:12.676Z,144495.88
2023-02-01T19:11:39.743Z,144423.25
2023-02-01T19:14:09.475Z,144508.00
2023-02-01T19:16:39.614Z,144549.19
2023-02-01T19:19:06.712Z,144500.72
2023-02-01T19:21:33.778Z,144557.66
2023-02-01T19:24:00.888Z,144524.97
2023-02-01T19:26:27.950Z,144564.94
2023-02-01T19:28:58.162Z,144580.66
2023-02-01T19:31:25.205Z,144498.31
2023-02-01T19:33:52.258Z,144498.31
2023-02-01T19:36:19.301Z,144575.81
2023-02-01T19:38:46.379Z,144595.19
2023-02-01T19:41:13.390Z,144602.47
2023-02-01T19:43:40.466Z,144539.50
2023-02-01T19:46:07.709Z,144600.03
2023-02-01T19:48:34.985Z,144609.72
2023-02-01T19:51:04.103Z,144539.50
2023-02-01T19:53:31.318Z,144543.13
2023-02-01T19:55:59.057Z,144626.69
2023-02-01T19:58:26.331Z,144491.03
2023-02-01T20:00:54.364Z,144624.28
2023-02-01T20:03:22.064Z,144602.47
2023-02-01T20:05:53.386Z,144495.88
2023-02-01T20:08:21.143Z,144629.13
2023-02-01T20:10:48.314Z,144650.91
2023-02-01T20:13:16.214Z,144642.44
2023-02-01T20:15:43.476Z,144631.53
2023-02-01T20:18:10.943Z,144408.72
2023-02-01T20:20:37.991Z,144690.94
2023-02-01T20:23:06.293Z,144699.41
2023-02-01T20:25:34.188Z,144693.38
2023-02-01T20:28:01.488Z,144709.09
2023-02-01T20:30:29.306Z,144684.88
2023-02-01T20:32:56.478Z,144683.69
2023-02-01T20:35:23.727Z,144709.09
2023-02-01T20:37:51.741Z,144661.81
2023-02-01T20:40:18.871Z,144680.03
2023-02-01T20:42:46.076Z,144665.47
2023-02-01T20:45:13.372Z,144598.84
2023-02-01T20:47:42.222Z,144597.63
2023-02-01T20:50:10.188Z,144527.38
2023-02-01T20:52:37.293Z,144443.84
2023-02-01T20:55:04.826Z,144447.50
2023-02-01T20:57:32.724Z,144516.50
2023-02-01T21:00:00.440Z,144517.69
2023-02-01T21:02:27.495Z,144543.13
2023-02-01T21:04:54.579Z,144446.25
2023-02-01T21:07:21.937Z,144493.50
2023-02-01T21:09:48.929Z,144483.81
2023-02-01T21:12:15.948Z,144517.69
2023-02-01T21:14:43.067Z,144537.06
2023-02-01T21:17:10.064Z,144544.34
2023-02-01T21:19:43.509Z,144439.00
2023-02-01T21:22:11.803Z,144499.53
2023-02-01T21:24:41.025Z,144551.63
2023-02-01T21:27:09.424Z,144524.97
2023-02-01T21:29:36.760Z,144554.00
2023-02-01T21:32:05.060Z,144550.38
2023-02-01T21:34:32.127Z,144468.03
2023-02-01T21:36:59.334Z,144568.53
2023-02-01T21:39:28.918Z,144520.13
2023-02-01T21:42:16.402Z,144409.94
2023-02-01T21:44:46.107Z,144197.03
2023-02-01T21:47:16.615Z,144157.09
2023-02-01T21:49:44.874Z,144157.09
2023-02-01T21:52:12.563Z,144147.44
2023-02-01T21:54:39.622Z,144057.94
2023-02-01T21:57:11.046Z,143975.75
2023-02-01T21:59:40.376Z,144167.97
2023-02-01T22:02:13.258Z,144183.72
2023-02-01T22:04:40.817Z,144174.00
2023-02-01T22:07:07.958Z,144147.44
2023-02-01T22:09:35.071Z,144039.81
2023-02-01T22:12:02.074Z,144141.34
2023-02-01T22:14:29.139Z,144152.25
2023-02-01T22:16:56.187Z,144159.50
2023-02-01T22:19:23.284Z,144166.75
2023-02-01T22:21:50.309Z,144204.25
2023-02-01T22:24:20.963Z,144154.66
2023-02-01T22:26:48.808Z,144070.03
2023-02-01T22:29:19.145Z,144072.44
2023-02-01T22:31:46.555Z,143958.81
2023-02-01T22:34:13.955Z,144050.66
2023-02-01T22:36:41.186Z,144038.59
2023-02-01T22:39:08.434Z,144024.06
2023-02-01T22:41:35.533Z,144053.09
2023-02-01T22:44:02.653Z,144021.66
2023-02-01T22:46:31.326Z,144071.25
2023-02-01T22:48:59.264Z,144057.94
2023-02-01T22:51:30.826Z,144082.09
2023-02-01T22:53:58.298Z,144082.09
2023-02-01T22:56:35.107Z,144068.78
2023-02-01T22:59:04.602Z,143970.91
2023-02-01T23:01:33.134Z,144120.81
2023-02-01T23:04:04.237Z,144106.31
2023-02-01T23:06:32.360Z,144111.16
2023-02-01T23:09:05.247Z,144088.19
2023-02-01T23:11:32.347Z,144050.66
2023-02-01T23:13:59.429Z,144083.28
2023-02-01T23:16:29.024Z,144050.66
2023-02-01T23:18:56.665Z,143940.69
2023-02-01T23:21:24.045Z,144074.88
2023-02-01T23:23:53.598Z,144057.94
2023-02-01T23:26:21.925Z,143995.06
2023-02-01T23:28:50.708Z,144020.47
2023-02-01T23:31:17.965Z,143894.75
2023-02-01T23:33:45.845Z,143957.59
2023-02-01T23:36:16.124Z,143922.56
2023-02-01T23:38:44.421Z,143929.81
2023-02-01T23:41:12.843Z,143859.72
2023-02-01T23:43:58.669Z,143868.16
2023-02-01T23:46:28.851Z,143970.91
2023-02-01T23:48:56.228Z,143985.41
2023-02-01T23:51:24.102Z,143967.28
2023-02-01T23:53:51.544Z,144009.56
2023-02-01T23:56:28.035Z,144020.47
2023-02-01T23:58:56.642Z,144007.16
